• Join FlightAware (Why Join?)
  • Login
  • US Flag 
08:12PM EDT


 

Airport Tracker/Info


-or-


 

Live Flight TrackerFlight Track Log ✈ SWA1040 ✈ 03-Aug-2013 ✈ KPVD - KTPA

Flight Track Log - Related Links

Times and Time Zones

All times are in EDT time to prevent confusion due to time zone crossing. See the SWA1040 flight status page for this flight to view local times or setup timezone preferences in your user account.

Time Position Orientation Groundspeed Altitude Reporting Facility
EDT Latitude Longitude Course Direction KTS MPH feet Rate Location/Type
07:07AM 41.7083 -71.4389 246° West 138 159 1,000  Level Boston Center
07:07AM 41.6981 -71.4697 246° West 156 180 2,000 1,980 Climbing Boston Center
07:08AM 41.6986 -71.5308 271° West 184 212 4,000 2,580 Climbing Boston Center
07:09AM 41.7428 -71.5997 311° West 207 238 7,000 3,360 Climbing Boston Center
07:10AM 41.7683 -71.6831 292° West 234 269 10,800 3,180 Climbing Boston Center
07:11AM 41.7878 -71.7914 284° West 277 319 13,500 2,760 Climbing Boston Center
07:12AM 41.7842 -71.9000 267° West 315 362 16,400 3,120 Climbing Boston Center
07:13AM 41.7494 -72.0339 251° West 332 382 19,800 3,000 Climbing Boston Center
07:14AM 41.7122 -72.1536 247° West 352 405 22,500 2,340 Climbing Boston Center
07:15AM 41.6750 -72.2761 248° West 357 411 24,500 1,920 Climbing Boston Center
07:16AM 41.6375 -72.4067 249° West 363 418 26,400 1,860 Climbing Boston Center
07:17AM 41.5958 -72.5400 247° West 375 432 28,300 1,800 Climbing Boston Center
07:18AM 41.5539 -72.6786 248° West 394 453 30,000 1,260 Climbing Boston Center
07:19AM 41.5203 -72.7950 249° West 394 453 30,900 1,500 Climbing Boston Center
07:20AM 41.4822 -72.9278 249° West 389 448 33,100 1,500 Climbing Boston Center
07:21AM 41.4422 -73.0603 248° West 389 448 34,000 1,140 Climbing Boston Center
07:23AM 41.3608 -73.3336 248° West 380 437 36,700 1,140 Climbing New York Center
07:24AM 41.3206 -73.4592 247° West 380 437 37,600 960 Climbing New York Center
07:25AM 41.2803 -73.5844 247° West 375 432 38,700 1,200 Climbing New York Center
07:26AM 41.2169 -73.6950 233° Southwest 370 426 40,000 600 Climbing New York Center
07:27AM 41.1517 -73.8050 232° Southwest 376 433 40,000  Level New York Center
07:28AM 41.0864 -73.9150 232° Southwest 381 438 40,000  Level New York Center
07:29AM 41.0231 -74.0275 233° Southwest 386 444 40,000  Level New York Center
07:30AM 40.9575 -74.1342 231° Southwest 386 444 40,000  Level New York Center
07:31AM 40.8942 -74.2297 229° Southwest 386 444 40,000  Level New York Center
07:32AM 40.8286 -74.3361 231° Southwest 386 444 40,000  Level New York Center
07:33AM 40.7628 -74.4450 231° Southwest 386 444 40,000  Level New York Center
07:34AM 40.6969 -74.5511 231° Southwest 386 444 40,000  Level New York Center
07:35AM 40.6308 -74.6622 232° Southwest 386 444 40,000  Level New York Center
07:36AM 40.5606 -74.7703 229° Southwest 391 450 40,000  Level New York Center
07:37AM 40.4794 -74.8883 228° Southwest 398 458 40,000  Level New York Center
07:38AM 40.4067 -74.9958 228° Southwest 398 458 40,000  Level New York Center
07:39AM 40.3342 -75.1003 228° Southwest 398 458 40,000  Level New York Center
07:40AM 40.2575 -75.2042 226° Southwest 398 458 40,000  Level New York Center
07:41AM 40.1825 -75.3108 227° Southwest 398 458 40,000  Level New York Center
07:42AM 40.1075 -75.4172 227° Southwest 398 458 40,000  Level New York Center
07:43AM 40.0303 -75.5206 226° Southwest 398 458 40,000  Level New York Center
07:44AM 39.9531 -75.6289 227° Southwest 398 458 40,000  Level New York Center
07:45AM 39.8797 -75.7375 229° Southwest 404 465 40,000  Level New York Center
07:46AM 39.8103 -75.8514 232° Southwest 410 472 40,000  Level New York Center
07:47AM 39.7408 -75.9625 231° Southwest 415 478 40,000  Level New York Center
07:49AM 39.5975 -76.1867 230° Southwest 406 467 40,000  Level Washington Center
07:50AM 39.5261 -76.2992 231° Southwest 406 467 40,000  Level Washington Center
07:51AM 39.4525 -76.4086 229° Southwest 406 467 40,000  Level Washington Center
07:52AM 39.3936 -76.4992 230° Southwest 406 467 40,000  Level Washington Center
07:53AM 39.3111 -76.6242 230° Southwest 406 467 40,000  Level Washington Center
07:54AM 39.2394 -76.7386 231° Southwest 406 467 40,000  Level Washington Center
07:55AM 39.1653 -76.8553 231° Southwest 412 474 40,000  Level Washington Center
07:56AM 39.0931 -76.9636 229° Southwest 417 480 40,000  Level Washington Center
07:57AM 39.0128 -77.0742 227° Southwest 417 480 40,000  Level Washington Center
07:58AM 38.9261 -77.1658 219° Southwest 412 474 40,000  Level Washington Center
07:59AM 38.8372 -77.2625 220° Southwest 417 480 40,000  Level Washington Center
08:00AM 38.7483 -77.3592 220° Southwest 417 480 40,000  Level Washington Center
08:01AM 38.6569 -77.4581 220° Southwest 422 486 40,000  Level Washington Center
08:02AM 38.5700 -77.5567 222° Southwest 422 486 40,000  Level Washington Center
08:03AM 38.4786 -77.6550 220° Southwest 422 486 40,000  Level Washington Center
08:04AM 38.3917 -77.7481 220° Southwest 422 486 40,000  Level Washington Center
08:05AM 38.3022 -77.8458 221° Southwest 422 486 40,000  Level Washington Center
08:06AM 38.2128 -77.9411 220° Southwest 422 486 40,000  Level Washington Center
08:07AM 38.1233 -78.0358 220° Southwest 422 486 40,000  Level Washington Center
08:08AM 38.0358 -78.1333 221° Southwest 417 480 40,000  Level Washington Center
08:09AM 37.9419 -78.2275 218° Southwest 412 474 40,000  Level Washington Center
08:10AM 37.8461 -78.3161 216° Southwest 417 480 40,000  Level Washington Center
08:11AM 37.7544 -78.4047 217° Southwest 423 487 40,000  Level Washington Center
08:12AM 37.6692 -78.4831 216° Southwest 429 494 40,000  Level Washington Center
08:13AM 37.5753 -78.5711 217° Southwest 429 494 40,000  Level Washington Center
08:14AM 37.4811 -78.6617 217° Southwest 429 494 40,000  Level Washington Center
08:15AM 37.3831 -78.7492 215° Southwest 429 494 40,000  Level Washington Center
08:16AM 37.2781 -78.8467 216° Southwest 429 494 40,000  Level Washington Center
08:17AM 37.1817 -78.9364 217° Southwest 429 494 40,000  Level Washington Center
08:18AM 37.0853 -79.0258 217° Southwest 435 501 40,000  Level Washington Center
08:19AM 36.9908 -79.1153 217° Southwest 435 501 40,000  Level Washington Center
08:20AM 36.8944 -79.2044 217° Southwest 435 501 40,000  Level Washington Center
08:21AM 36.8064 -79.2833 216° Southwest 442 509 40,000  Level Washington Center
08:22AM 36.7078 -79.3744 217° Southwest 442 509 40,000  Level Washington Center
08:23AM 36.6111 -79.4603 215° Southwest 442 509 40,000  Level Washington Center
08:25AM 36.3892 -79.6619 216° Southwest 447 514 40,000  Level Atlanta Center
08:26AM 36.2942 -79.7497 217° Southwest 441 507 40,000  Level Atlanta Center
08:27AM 36.1969 -79.8347 215° Southwest 441 507 40,000  Level Atlanta Center
08:28AM 36.1019 -79.9217 216° Southwest 441 507 40,000  Level Atlanta Center
08:29AM 36.0061 -79.9908 210° Southwest 441 507 40,000  Level Atlanta Center
08:30AM 35.8933 -80.0503 203° Southwest 441 507 40,000  Level Atlanta Center
08:31AM 35.7764 -80.1097 202° Southwest 452 520 40,000  Level Atlanta Center
08:32AM 35.6614 -80.1689 203° Southwest 452 520 40,000  Level Atlanta Center
08:33AM 35.5422 -80.2283 202° Southwest 452 520 40,000  Level Atlanta Center
08:34AM 35.4272 -80.2869 203° Southwest 452 520 40,000  Level Atlanta Center
08:35AM 35.3122 -80.3431 202° Southwest 452 520 40,000  Level Atlanta Center
08:36AM 35.1969 -80.4017 203° Southwest 452 520 40,000  Level Atlanta Center
08:38AM 34.9553 -80.5194 202° Southwest 446 513 40,000  Level Jacksonville Center
08:39AM 34.8417 -80.5781 203° Southwest 451 519 40,000  Level Jacksonville Center
08:40AM 34.7300 -80.6342 202° Southwest 440 506 40,000  Level Jacksonville Center
08:41AM 34.6161 -80.6903 202° Southwest 440 506 40,000  Level Jacksonville Center
08:42AM 34.4942 -80.7511 202° Southwest 463 533 40,000  Level Jacksonville Center
08:43AM 34.3803 -80.8044 201° Southwest 451 519 40,000  Level Jacksonville Center
08:44AM 34.2706 -80.8572 202° Southwest 445 512 40,000  Level Jacksonville Center
08:45AM 34.1528 -80.9153 202° Southwest 437 503 40,000  Level Jacksonville Center
08:46AM 34.0325 -80.9731 202° Southwest 450 518 40,000  Level Jacksonville Center
08:47AM 33.9167 -81.0281 202° Southwest 455 524 40,000  Level Jacksonville Center
08:48AM 33.8006 -81.0831 201° Southwest 455 524 40,000  Level Jacksonville Center
08:49AM 33.6844 -81.1428 203° Southwest 449 517 40,000  Level Jacksonville Center
08:50AM 33.5706 -81.1975 202° Southwest 449 517 40,000  Level Jacksonville Center
08:51AM 33.4503 -81.2569 202° Southwest 455 524 40,000  Level Jacksonville Center
08:52AM 33.3361 -81.3139 203° Southwest 455 524 40,000  Level Jacksonville Center
08:53AM 33.2200 -81.3681 201° Southwest 455 524 40,000  Level Jacksonville Center
08:54AM 33.1017 -81.4294 203° Southwest 455 524 40,000  Level Jacksonville Center
08:55AM 32.9833 -81.4858 202° Southwest 455 524 40,000  Level Jacksonville Center
08:56AM 32.8650 -81.5422 202° Southwest 455 524 40,000  Level Jacksonville Center
08:57AM 32.7486 -81.5983 202° Southwest 455 524 40,000  Level Jacksonville Center
08:58AM 32.6303 -81.6567 203° Southwest 455 524 40,000  Level Jacksonville Center
08:59AM 32.5139 -81.7125 202° Southwest 455 524 40,000  Level Jacksonville Center
09:00AM 32.4100 -81.7631 202° Southwest 455 524 40,000  Level Jacksonville Center
09:01AM 32.2811 -81.8261 202° Southwest 455 524 40,000  Level Jacksonville Center
09:02AM 32.1728 -81.8617 196° South 455 524 40,000  Level Jacksonville Center
09:03AM 32.0331 -81.8878 189° South 456 525 40,000  Level Jacksonville Center
09:04AM 31.9058 -81.9136 190° South 461 531 40,000  Level Jacksonville Center
09:05AM 31.7933 -81.9344 189° South 467 537 40,000  Level Jacksonville Center
09:06AM 31.6536 -81.9628 190° South 467 537 40,000  Level Jacksonville Center
09:07AM 31.5433 -81.9858 190° South 462 532 40,000  Level Jacksonville Center
09:08AM 31.4139 -82.0089 189° South 470 541 40,000  Level Jacksonville Center
09:09AM 31.2742 -82.0394 191° South 465 535 40,000  Level Jacksonville Center
09:10AM 31.1469 -82.0625 189° South 465 535 40,000  Level Jacksonville Center
09:11AM 31.0219 -82.0878 190° South 465 535 40,000  Level Jacksonville Center
09:12AM 30.8947 -82.1131 190° South 465 535 40,000 -120 Level Jacksonville Center
09:13AM 30.7675 -82.1358 189° South 465 535 39,800 -600 Descending Jacksonville Center
09:14AM 30.6422 -82.1608 190° South 465 535 38,800 -900 Descending Jacksonville Center
09:15AM 30.5233 -82.1789 187° South 471 542 38,000 -420 Descending Jacksonville Center
09:16AM 30.3961 -82.2014 189° South 471 542 38,000  Level Jacksonville Center
09:17AM 30.2689 -82.2264 190° South 466 536 38,000 -180 Level Jacksonville Center
09:18AM 30.1439 -82.2511 190° South 466 536 37,700 -1,440 Descending Jacksonville Center
09:19AM 30.0208 -82.2736 189° South 461 531 35,200 -2,580 Descending Jacksonville Center
09:20AM 29.8956 -82.3031 192° South 461 531 32,600 -2,460 Descending Jacksonville Center
09:21AM 29.7725 -82.3278 190° South 461 531 30,300 -2,280 Descending Jacksonville Center
09:22AM 29.6536 -82.3453 187° South 448 516 28,100 -2,280 Descending Jacksonville Center
09:23AM 29.5367 -82.3531 183° South 436 502 25,800 -2,760 Descending Jacksonville Center
09:24AM 29.4197 -82.3369 173° South 424 488 22,600 -3,120 Descending Jacksonville Center
09:25AM 29.3028 -82.3233 174° South 424 488 19,600 -2,940 Descending Jacksonville Center
09:26AM 29.1881 -82.3122 175° South 424 488 16,800 -2,760 Descending Jacksonville Center
09:27AM 29.0753 -82.2986 174° South 419 482 14,100 -1,980 Descending Jacksonville Center
09:28AM 28.9708 -82.2875 175° South 406 467 12,900 -600 Descending Jacksonville Center
09:29AM 28.8808 -82.2761 174° South 370 426 12,900  Level Jacksonville Center
09:31AM 28.7000 -82.2500 173° South 314 361 13,000 -300 Climbing Tampa TRACON
09:32AM 28.6167 -82.2500 180° South 312 359 12,000 -1,260 Descending Tampa TRACON
09:33AM 28.5333 -82.2500 180° South 312 359 10,700 -1,500 Descending Tampa TRACON
09:34AM 28.4500 -82.2500 180° South 298 343 9,200 -1,500 Descending Tampa TRACON
09:35AM 28.3667 -82.2500 180° South 289 333 7,600 -1,440 Descending Tampa TRACON
09:36AM 28.3000 -82.3167 221° Southwest 270 311 6,200 -1,440 Descending Tampa TRACON
09:37AM 28.2667 -82.3833 240° Southwest 262 302 4,800 -1,500 Descending Tampa TRACON
09:38AM 28.2167 -82.4333 221° Southwest 260 299 3,300 -900 Descending Tampa TRACON
09:40AM 28.1667 -82.5000 230° Southwest 227 261 3,000 -540 Descending Tampa TRACON
09:41AM 28.1167 -82.5167 196° South 192 221 2,200 -720 Descending Tampa TRACON
09:42AM 28.0667 -82.5333 196° South 168 193 1,500 -720 Descending Tampa TRACON
09:43AM 28.0333 -82.5333 180° South 135 155 800 -720 Descending Tampa TRACON